Latest Coastal Weather Observations for Wyndham Airport

IDD60701

Issued at 6:25 am CST Thursday 28 August 2014 (issued every 10 minutes, with the page automatically refreshed every 10 minutes)

About coastal observations | Map of coastal stations | Coastal observations for NT | Marine services | Other Formats
Station Details ID: 001006 Name: WYNDHAM AERO Lat: -15.51 Lon: 128.15 Height: 3.8 m
Data from the previous 72 hours. | See also: Recent months for locations in Northern Territory
Date/Time
CST
Temp

°C
Wind Pressure Rain
since 9am
mm
Weather Cloud Vis
km
Sea
Height
m
Swell
Dir
 
Speed
knots
Gust
knots
hPa Trend Height
m
Period
s
Dir
28/06:00am 14.2 E 7 8 1015.2 - 0.0 - - - - - - -
28/05:30am 13.9 E 5 6 1014.9 - 0.0 - - - - - - -
28/05:00am 13.7 E 7 8 1014.7 - 0.0 - - - - - - -
28/04:30am 13.6 E 7 8 1014.6 - 0.0 - - - - - - -
28/04:00am 15.0 E 5 6 1014.6 - 0.0 - - - - - - -
28/03:30am 15.5 E 6 7 1014.6 - 0.0 - - - - - - -
28/03:00am 14.8 ESE 5 6 1014.6 - 0.0 - - - - - - -
28/02:30am 15.7 ESE 6 7 1014.6 - 0.0 - - - - - - -
28/02:00am 17.5 E 6 6 1014.5 - 0.0 - - - - - - -
28/01:30am 15.3 ESE 6 6 1014.7 - 0.0 - - - - - - -
28/01:00am 16.0 E 5 6 1014.9 - 0.0 - - - - - - -
28/12:30am 16.2 ENE 5 5 1015.2 - 0.0 - - - - - - -
28/12:00am 18.0 CALM 0 3 1015.0 - 0.0 - - - - - - -
 
Date/Time
CST
Temp

°C
Wind Pressure Rain
since 9am
mm
Weather Cloud Vis
km
Sea
Height
m
Swell
Dir
 
Speed
knots
Gust
knots
hPa Trend Height
m
Period
s
Dir
27/11:30pm 17.6 NW 5 5 1014.8 - 0.0 - - - - - - -
27/11:00pm 19.6 NW 3 5 1014.9 - 0.0 - - - - - - -
27/10:30pm 18.6 NW 1 4 1014.9 - 0.0 - - - - - - -
27/10:00pm 21.1 E 5 6 1014.9 - 0.0 - - - - - - -
27/09:30pm 22.7 E 5 6 1014.8 - 0.0 - - - - - - -
27/09:00pm 23.1 ENE 5 6 1014.7 - 0.0 - - - - - - -
27/08:30pm 23.1 SE 7 8 1014.3 - 0.0 - - - - - - -
27/08:00pm 23.9 SE 5 6 1013.8 - 0.0 - - - - - - -
27/07:30pm 25.0 ESE 5 6 1013.3 - 0.0 - - - - - - -
27/07:00pm 27.9 E 7 10 1012.8 - 0.0 - - - - - - -
27/06:30pm 30.2 E 9 11 1012.4 - 0.0 - - - - - - -
27/06:00pm 31.4 ESE 11 14 1012.2 - 0.0 - - - - - - -
27/05:30pm 32.3 ENE 8 15 1012.1 - 0.0 - - - - - - -
27/05:00pm 32.5 E 10 19 1012.0 - 0.0 - - - - - - -
27/04:30pm 32.4 E 9 17 1011.9 - 0.0 - - - - - - -
27/04:00pm 32.6 ENE 12 17 1012.0 - 0.0 - - - - - - -
27/03:30pm 32.4 E 11 16 1012.4 - 0.0 - - - - - - -
27/03:00pm 32.5 ESE 11 17 1012.7 - 0.0 - - - - - - -
27/02:30pm 32.4 SE 13 21 1013.0 - 0.0 - - - - - - -
27/02:00pm 32.7 E 12 19 1013.2 - 0.0 - - - - - - -
27/01:30pm 32.0 E 13 24 1013.8 - 0.0 - - - - - - -
27/01:00pm 32.2 E 15 21 1014.5 - 0.0 - - - - - - -
27/12:30pm 31.7 E 15 23 1015.1 - 0.0 - - - - - - -
27/12:00pm 31.4 E 15 21 1015.7 - 0.0 - - - - - - -
27/11:30am 31.1 E 18 25 1016.0 - 0.0 - - - - - - -
27/11:26am 30.6 E 18 28 1016.0 - 0.0 - - - - - - -
27/11:00am 30.2 E 20 27 1016.3 - 0.0 - - - - - - -
27/10:30am 29.3 E 20 25 1016.5 - 0.0 - - - - - - -
27/10:14am 28.7 E 19 29 1016.5 - 0.0 - - - - - - -
27/10:00am 28.2 E 21 28 1016.4 - 0.0 - - - - - - -
27/09:30am 27.5 E 19 30 1016.5 - 0.0 - - - - - - -
27/09:00am 26.2 E 15 19 1016.5 - 0.0 - - - - - - -
27/08:59am 26.1 E 15 19 1016.5 - 0.0 - - - - - - -
27/08:30am 22.8 ESE 4 6 1016.3 - 0.0 - - - - - - -
27/08:00am 18.6 ESE 4 5 1016.0 - 0.0 - - - - - - -
27/07:30am 14.3 ESE 4 5 1015.6 - 0.0 - - - - - - -
27/07:00am 13.2 E 4 5 1015.1 - 0.0 - - - - - - -
27/06:30am 13.2 ENE 5 6 1014.8 - 0.0 - - - - - - -
27/06:00am 13.0 E 4 5 1014.5 - 0.0 - - - - - - -
27/05:30am 14.5 ENE 5 6 1014.2 - 0.0 - - - - - - -
27/05:00am 13.7 ENE 5 6 1014.1 - 0.0 - - - - - - -
27/04:30am 13.6 ENE 5 6 1014.1 - 0.0 - - - - - - -
27/04:00am 15.2 ENE 5 6 1014.1 - 0.0 - - - - - - -
27/03:30am 16.0 ENE 5 5 1014.2 - 0.0 - - - - - - -
27/03:00am 16.3 E 4 5 1014.3 - 0.0 - - - - - - -
27/02:30am 17.6 E 6 6 1014.4 - 0.0 - - - - - - -
27/02:00am 16.7 E 4 5 1014.4 - 0.0 - - - - - - -
27/01:30am 16.9 NE 5 6 1014.5 - 0.0 - - - - - - -
27/01:00am 16.1 CALM 0 0 1014.6 - 0.0 - - - - - - -
27/12:30am 16.6 CALM 0 0 1014.7 - 0.0 - - - - - - -
27/12:00am 17.5 NE 3 4 1014.6 - 0.0 - - - - - - -
 
Date/Time
CST
Temp

°C
Wind Pressure Rain
since 9am
mm
Weather Cloud Vis
km
Sea
Height
m
Swell
Dir
 
Speed
knots
Gust
knots
hPa Trend Height
m
Period
s
Dir
26/11:30pm 19.7 ENE 5 5 1014.6 - 0.0 - - - - - - -
26/11:00pm 20.8 ENE 5 6 1014.5 - 0.0 - - - - - - -
26/10:30pm 22.5 ENE 5 6 1014.6 - 0.0 - - - - - - -
26/10:00pm 22.4 E 6 7 1014.5 - 0.0 - - - - - - -
26/09:30pm 22.7 E 6 7 1014.3 - 0.0 - - - - - - -
26/09:00pm 24.1 E 7 7 1014.2 - 0.0 - - - - - - -
26/08:30pm 24.8 E 7 9 1013.8 - 0.0 - - - - - - -
26/08:00pm 24.0 E 7 8 1013.4 - 0.0 - - - - - - -
26/07:30pm 27.8 SSE 11 15 1013.1 - 0.0 - - - - - - -
26/07:00pm 27.9 ESE 7 9 1012.7 - 0.0 - - - - - - -
26/06:30pm 29.8 E 11 13 1012.4 - 0.0 - - - - - - -
26/06:00pm 31.1 ESE 11 14 1012.3 - 0.0 - - - - - - -
26/05:30pm 31.5 E 8 13 1012.3 - 0.0 - - - - - - -
26/05:00pm 31.9 SE 11 15 1012.4 - 0.0 - - - - - - -
26/04:30pm 32.0 ESE 9 15 1012.7 - 0.0 - - - - - - -
26/04:00pm 33.1 ESE 12 19 1013.0 - 0.0 - - - - - - -
26/03:30pm 31.5 E 11 18 1013.3 - 0.0 - - - - - - -
26/03:00pm 32.1 ESE 14 18 1013.6 - 0.0 - - - - - - -
26/02:30pm 31.9 E 10 18 1013.9 - 0.0 - - - - - - -
26/02:00pm 31.4 SE 12 18 1014.5 - 0.0 - - - - - - -
26/01:30pm 31.7 SE 14 19 1015.0 - 0.0 - - - - - - -
26/01:00pm 30.9 ESE 15 22 1015.7 - 0.0 - - - - - - -
26/12:30pm 31.2 ESE 16 23 1016.0 - 0.0 - - - - - - -
26/12:00pm 30.7 ESE 18 23 1016.4 - 0.0 - - - - - - -
26/11:30am 30.0 E 17 26 1016.9 - 0.0 - - - - - - -
26/11:24am 29.5 ENE 18 23 1016.8 - 0.0 - - - - - - -
26/11:00am 29.6 ESE 22 30 1017.1 - 0.0 - - - - - - -
26/10:30am 29.5 E 20 27 1017.2 - 0.0 - - - - - - -
26/10:00am 28.6 E 21 31 1017.2 - 0.0 - - - - - - -
26/09:52am 28.3 E 19 31 1017.1 - 0.0 - - - - - - -
26/09:30am 27.9 ESE 19 26 1017.0 - 0.0 - - - - - - -
26/09:00am 26.9 ESE 15 21 1017.1 - 0.0 - - - - - - -
26/08:30am 25.2 ESE 10 14 1016.9 - 0.0 - - - - - - -
26/08:00am 22.4 E 8 9 1016.7 - 0.0 - - - - - - -
26/07:30am 19.6 E 9 10 1016.3 - 0.0 - - - - - - -
26/07:00am 18.5 E 9 11 1016.0 - 0.0 - - - - - - -
26/06:30am 18.6 E 9 10 1015.8 - 0.0 - - - - - - -
26/06:00am 20.5 E 8 9 1015.6 - 0.0 - - - - - - -
26/05:30am 19.7 E 7 8 1015.4 - 0.0 - - - - - - -
26/05:00am 20.0 E 7 8 1015.2 - 0.0 - - - - - - -
26/04:30am 19.6 E 7 7 1015.1 - 0.0 - - - - - - -
26/04:00am 19.9 E 6 7 1015.1 - 0.0 - - - - - - -
26/03:30am 20.6 E 7 8 1015.1 - 0.0 - - - - - - -
26/03:00am 21.3 E 7 8 1015.3 - 0.0 - - - - - - -
26/02:30am 20.9 E 7 8 1015.4 - 0.0 - - - - - - -
26/02:00am 22.2 E 7 8 1015.5 - 0.0 - - - - - - -
26/01:30am 22.4 E 8 9 1015.6 - 0.0 - - - - - - -
26/01:00am 20.7 ENE 6 8 1015.7 - 0.0 - - - - - - -
26/12:30am 20.5 E 4 5 1015.6 - 0.0 - - - - - - -
26/12:00am 20.7 E 5 6 1015.7 - 0.0 - - - - - - -
 
Date/Time
CST
Temp

°C
Wind Pressure Rain
since 9am
mm
Weather Cloud Vis
km
Sea
Height
m
Swell
Dir
 
Speed
knots
Gust
knots
hPa Trend Height
m
Period
s
Dir
25/11:30pm 21.6 E 5 6 1015.7 - 0.0 - - - - - - -
25/11:00pm 21.4 E 5 5 1015.6 - 0.0 - - - - - - -
25/10:30pm 21.6 E 5 6 1015.4 - 0.0 - - - - - - -
25/10:00pm 22.2 E 6 6 1015.3 - 0.0 - - - - - - -
25/09:30pm 22.7 E 6 7 1015.2 - 0.0 - - - - - - -
25/09:00pm 24.6 ESE 6 7 1015.0 - 0.0 - - - - - - -
25/08:30pm 25.8 E 7 9 1014.7 - 0.0 - - - - - - -
25/08:00pm 24.8 ESE 7 8 1014.3 - 0.0 - - - - - - -
25/07:30pm 26.9 ESE 8 13 1014.0 - 0.0 - - - - - - -
25/07:00pm 29.3 SSE 9 11 1013.6 - 0.0 - - - - - - -
25/06:30pm 30.7 SE 12 15 1013.2 - 0.0 - - - - - - -
25/06:00pm 31.7 E 12 16 1012.9 - 0.0 - - - - - - -
25/05:30pm 32.5 E 11 18 1012.6 - 0.0 - - - - - - -
25/05:00pm 32.6 E 12 18 1012.6 - 0.0 - - - - - - -
25/04:30pm 32.8 ESE 13 18 1012.7 - 0.0 - - - - - - -
25/04:00pm 33.0 E 14 19 1013.1 - 0.0 - - - - - - -
25/03:30pm 33.5 SE 15 22 1013.3 - 0.0 - - - - - - -
25/03:00pm 33.2 E 16 22 1013.7 - 0.0 - - - - - - -
25/02:30pm 33.8 ESE 16 27 1014.0 - 0.0 - - - - - - -
25/02:24pm 33.7 E 16 27 1014.2 - 0.0 - - - - - - -
25/02:00pm 32.9 ESE 19 27 1014.6 - 0.0 - - - - - - -
25/01:38pm 32.7 ESE 17 27 1015.0 - 0.0 - - - - - - -
25/01:30pm 33.4 E 17 25 1015.2 - 0.0 - - - - - - -
25/01:00pm 33.0 ESE 20 28 1015.8 - 0.0 - - - - - - -
25/12:30pm 31.9 E 21 27 1016.4 - 0.0 - - - - - - -
25/12:00pm 31.3 E 21 31 1017.0 - 0.0 - - - - - - -
25/11:58am 31.9 E 21 31 1017.0 - 0.0 - - - - - - -
25/11:30am 30.9 ESE 24 31 1017.6 - 0.0 - - - - - - -
25/11:20am 30.6 E 23 33 1017.7 - 0.0 - - - - - - -
25/11:00am 30.0 ESE 24 31 1017.8 - 0.0 - - - - - - -
25/10:30am 29.4 ESE 25 31 1017.9 - 0.0 - - - - - - -
25/10:00am 28.9 ESE 23 32 1017.9 - 0.0 - - - - - - -
25/09:30am 28.1 E 20 27 1017.8 - 0.0 - - - - - - -
25/09:27am 28.5 E 20 30 1017.8 - 0.0 - - - - - - -
25/09:00am 27.5 ESE 18 27 1017.7 - 0.0 - - - - - - -
25/08:33am 26.5 E 15 25 1017.5 - 0.0 - - - - - - -
25/08:30am 26.4 ESE 15 22 1017.5 - 0.0 - - - - - - -
25/08:27am 26.3 ESE 15 22 1017.4 - 0.0 - - - - - - -
25/08:00am 24.3 ESE 9 11 1017.2 - 0.0 - - - - - - -

Other Formats:

Comma delimited format used in spreadsheet applications
http://www.bom.gov.au/fwo/IDD60701/IDD60701.95214.axf

JavaScript Object Notation format (JSON) in row-major order
http://www.bom.gov.au/fwo/IDD60701/IDD60701.95214.json